Filly — WDC2691 — position and weather

sailwx.info

Track history (hours):
 
Tides and Currents Weather Stations Pressure Air Temp Water Temp Dewpoint Dewpoint Depression Visibility Wind Speed Wind Dir Waves Ship Positions

Filly

Owner: Kirby Inland Marine LP, Houston, TX. More information available from US FCC via Universal Licensing System and Coast Guard Vessel Documentation Center.

Last reported at 2017-Nov-15 08:00 UTC. Time now 2017-Nov-17 21:23 UTC.
Position N 29°44' W 095°09'.

Length 17 m; draft 2.6 m.

Type: . MMSI: 366996460.

Date/timePositionNaut miles runAvg speedWind from/ knotsBaromVisibWave heightAir tempDewpointWater temp
2017-Nov-15 08:00N 29°44' W 095°09'4 5.4
2017-Nov-15 07:15N 29°44' W 095°14'0 0.0
2017-Nov-15 06:59N 29°44' W 095°14'  
2017-Nov-12 09:41N 29°44' W 095°14'2 6.1
2017-Nov-12 09:21N 29°44' W 095°16'0 0.7
2017-Nov-12 08:57N 29°43' W 095°16'0 0.0
2017-Nov-12 08:30N 29°43' W 095°16'0 0.0
2017-Nov-12 07:54N 29°43' W 095°16'0 0.0
2017-Nov-12 07:30N 29°43' W 095°16'0 0.0
2017-Nov-12 06:48N 29°43' W 095°16'0 0.0
2017-Nov-12 06:30N 29°43' W 095°16'0 0.0
2017-Nov-12 05:59N 29°43' W 095°16'0 0.0
2017-Nov-12 05:29N 29°43' W 095°16'0 0.0
2017-Nov-12 04:50N 29°43' W 095°16'0 0.0
2017-Nov-12 04:29N 29°43' W 095°16'0 0.0
2017-Nov-12 03:50N 29°43' W 095°16'0 0.0
2017-Nov-12 03:30N 29°43' W 095°16'0 0.0
2017-Nov-12 02:56N 29°43' W 095°16'0 0.0
2017-Nov-12 02:30N 29°43' W 095°16'0 0.0
2017-Nov-12 01:56N 29°43' W 095°16'0 0.0
2017-Nov-12 01:30N 29°43' W 095°16'0 0.0
2017-Nov-12 00:57N 29°43' W 095°16'0 0.0
2017-Nov-12 00:29N 29°43' W 095°16'0 0.0
2017-Nov-11 23:51N 29°43' W 095°16'0 0.0
2017-Nov-11 23:29N 29°43' W 095°16'0 0.0
2017-Nov-11 22:59N 29°43' W 095°16'0 0.0
2017-Nov-11 22:26N 29°43' W 095°16'0 0.0
2017-Nov-11 21:57N 29°43' W 095°16'0 0.0
2017-Nov-11 21:24N 29°43' W 095°16'0 0.0
2017-Nov-11 12:18N 29°43' W 095°16'0 0.0
2017-Nov-11 12:00N 29°43' W 095°16'0 0.0
2017-Nov-11 11:12N 29°43' W 095°16'0 0.0
2017-Nov-11 10:57N 29°43' W 095°16'0 0.0
2017-Nov-11 10:24N 29°43' W 095°16'0 0.0
2017-Nov-11 09:51N 29°43' W 095°16'0 0.0
2017-Nov-11 09:30N 29°43' W 095°16'0 0.0
2017-Nov-11 08:42N 29°43' W 095°16'0 0.0
2017-Nov-11 07:36N 29°43' W 095°16'0 0.0
2017-Nov-11 05:33N 29°43' W 095°16'0 0.0
2017-Nov-11 05:27N 29°43' W 095°16'0 0.0
2017-Nov-11 04:57N 29°43' W 095°16'0 0.0
2017-Nov-10 11:33N 29°43' W 095°16'0 0.6
2017-Nov-10 11:27N 29°43' W 095°16'2 1.9
2017-Nov-10 10:17N 29°43' W 095°14'7 0.2
2017-Nov-08 20:24N 29°45' W 095°06'  
Track history (hours):
 
Tides and Currents Weather Stations Pressure Air Temp Water Temp Dewpoint Dewpoint Depression Visibility Wind Speed Wind Dir Waves Ship Positions

Filly

Owner: Kirby Inland Marine LP, Houston, TX. More information available from US FCC via Universal Licensing System and Coast Guard Vessel Documentation Center.

Last reported at 2017-Nov-15 08:00 UTC. Time now 2017-Nov-17 21:23 UTC.
Position N 29°44' W 095°09'.

Length 17 m; draft 2.6 m.

Type: . MMSI: 366996460.

Date/timePositionNaut miles runAvg speedWind from/ knotsBaromVisibWave heightAir tempDewpointWater temp
2017-Nov-15 08:00N 29°44' W 095°09'4 5.4
2017-Nov-15 07:15N 29°44' W 095°14'0 0.0
2017-Nov-15 06:59N 29°44' W 095°14'  
2017-Nov-12 09:41N 29°44' W 095°14'2 6.1
2017-Nov-12 09:21N 29°44' W 095°16'0 0.7
2017-Nov-12 08:57N 29°43' W 095°16'0 0.0
2017-Nov-12 08:30N 29°43' W 095°16'0 0.0
2017-Nov-12 07:54N 29°43' W 095°16'0 0.0
2017-Nov-12 07:30N 29°43' W 095°16'0 0.0
2017-Nov-12 06:48N 29°43' W 095°16'0 0.0
2017-Nov-12 06:30N 29°43' W 095°16'0 0.0
2017-Nov-12 05:59N 29°43' W 095°16'0 0.0
2017-Nov-12 05:29N 29°43' W 095°16'0 0.0
2017-Nov-12 04:50N 29°43' W 095°16'0 0.0
2017-Nov-12 04:29N 29°43' W 095°16'0 0.0
2017-Nov-12 03:50N 29°43' W 095°16'0 0.0
2017-Nov-12 03:30N 29°43' W 095°16'0 0.0
2017-Nov-12 02:56N 29°43' W 095°16'0 0.0
2017-Nov-12 02:30N 29°43' W 095°16'0 0.0
2017-Nov-12 01:56N 29°43' W 095°16'0 0.0
2017-Nov-12 01:30N 29°43' W 095°16'0 0.0
2017-Nov-12 00:57N 29°43' W 095°16'0 0.0
2017-Nov-12 00:29N 29°43' W 095°16'0 0.0
2017-Nov-11 23:51N 29°43' W 095°16'0 0.0
2017-Nov-11 23:29N 29°43' W 095°16'0 0.0
2017-Nov-11 22:59N 29°43' W 095°16'0 0.0
2017-Nov-11 22:26N 29°43' W 095°16'0 0.0
2017-Nov-11 21:57N 29°43' W 095°16'0 0.0
2017-Nov-11 21:24N 29°43' W 095°16'0 0.0
2017-Nov-11 12:18N 29°43' W 095°16'0 0.0
2017-Nov-11 12:00N 29°43' W 095°16'0 0.0
2017-Nov-11 11:12N 29°43' W 095°16'0 0.0
2017-Nov-11 10:57N 29°43' W 095°16'0 0.0
2017-Nov-11 10:24N 29°43' W 095°16'0 0.0
2017-Nov-11 09:51N 29°43' W 095°16'0 0.0
2017-Nov-11 09:30N 29°43' W 095°16'0 0.0
2017-Nov-11 08:42N 29°43' W 095°16'0 0.0
2017-Nov-11 07:36N 29°43' W 095°16'0 0.0
2017-Nov-11 05:33N 29°43' W 095°16'0 0.0
2017-Nov-11 05:27N 29°43' W 095°16'0 0.0
2017-Nov-11 04:57N 29°43' W 095°16'0 0.0
2017-Nov-10 11:33N 29°43' W 095°16'0 0.6
2017-Nov-10 11:27N 29°43' W 095°16'2 1.9
2017-Nov-10 10:17N 29°43' W 095°14'7 0.2
2017-Nov-08 20:24N 29°45' W 095°06'  

Dump ship's entire track history